sensor_id;sensor_type;location;lat;lon;timestamp;P1;durP1;ratioP1;P2;durP2;ratioP2
47373;SDS011;33123;50.118;10.272;2022-08-19T00:00:26;4.03;;;3.60;;
47373;SDS011;33123;50.118;10.272;2022-08-19T00:02:54;5.80;;;4.43;;
47373;SDS011;33123;50.118;10.272;2022-08-19T00:05:21;4.30;;;3.90;;
47373;SDS011;33123;50.118;10.272;2022-08-19T00:07:48;5.07;;;3.83;;
47373;SDS011;33123;50.118;10.272;2022-08-19T00:10:16;4.53;;;4.13;;
47373;SDS011;33123;50.118;10.272;2022-08-19T00:12:44;3.28;;;2.97;;
47373;SDS011;33123;50.118;10.272;2022-08-19T00:15:11;3.40;;;3.10;;
47373;SDS011;33123;50.118;10.272;2022-08-19T00:17:40;6.38;;;4.90;;
47373;SDS011;33123;50.118;10.272;2022-08-19T00:20:10;3.30;;;3.00;;
47373;SDS011;33123;50.118;10.272;2022-08-19T00:22:45;5.68;;;4.07;;
47373;SDS011;33123;50.118;10.272;2022-08-19T00:25:13;3.85;;;3.22;;
47373;SDS011;33123;50.118;10.272;2022-08-19T00:27:40;4.00;;;3.20;;
47373;SDS011;33123;50.118;10.272;2022-08-19T00:30:07;4.18;;;3.78;;
47373;SDS011;33123;50.118;10.272;2022-08-19T00:32:35;3.35;;;3.05;;
47373;SDS011;33123;50.118;10.272;2022-08-19T00:35:02;4.18;;;3.78;;
47373;SDS011;33123;50.118;10.272;2022-08-19T00:37:30;3.70;;;3.33;;
47373;SDS011;33123;50.118;10.272;2022-08-19T00:39:58;3.63;;;3.28;;
47373;SDS011;33123;50.118;10.272;2022-08-19T00:42:24;4.00;;;3.60;;
47373;SDS011;33123;50.118;10.272;2022-08-19T00:44:53;5.22;;;4.40;;
47373;SDS011;33123;50.118;10.272;2022-08-19T00:47:19;3.78;;;3.33;;
47373;SDS011;33123;50.118;10.272;2022-08-19T00:49:47;4.82;;;3.85;;
47373;SDS011;33123;50.118;10.272;2022-08-19T00:52:17;3.08;;;2.83;;
47373;SDS011;33123;50.118;10.272;2022-08-19T00:54:48;3.22;;;2.92;;
47373;SDS011;33123;50.118;10.272;2022-08-19T00:57:17;3.17;;;2.92;;
47373;SDS011;33123;50.118;10.272;2022-08-19T00:59:48;3.60;;;3.20;;
47373;SDS011;33123;50.118;10.272;2022-08-19T01:02:18;3.72;;;3.42;;
47373;SDS011;33123;50.118;10.272;2022-08-19T01:04:45;3.40;;;3.10;;
47373;SDS011;33123;50.118;10.272;2022-08-19T01:07:12;3.45;;;3.15;;
47373;SDS011;33123;50.118;10.272;2022-08-19T01:09:39;4.35;;;4.05;;
47373;SDS011;33123;50.118;10.272;2022-08-19T01:12:07;4.38;;;3.97;;
47373;SDS011;33123;50.118;10.272;2022-08-19T01:14:34;4.32;;;3.90;;
47373;SDS011;33123;50.118;10.272;2022-08-19T01:17:03;7.53;;;3.08;;
47373;SDS011;33123;50.118;10.272;2022-08-19T01:19:33;4.20;;;3.88;;
47373;SDS011;33123;50.118;10.272;2022-08-19T01:22:03;3.88;;;3.53;;
47373;SDS011;33123;50.118;10.272;2022-08-19T01:24:35;3.33;;;3.03;;
47373;SDS011;33123;50.118;10.272;2022-08-19T01:27:03;4.57;;;3.00;;
47373;SDS011;33123;50.118;10.272;2022-08-19T01:29:30;3.83;;;3.50;;
47373;SDS011;33123;50.118;10.272;2022-08-19T01:31:57;3.72;;;3.40;;
47373;SDS011;33123;50.118;10.272;2022-08-19T01:34:25;4.03;;;3.08;;
47373;SDS011;33123;50.118;10.272;2022-08-19T01:36:51;4.20;;;2.63;;
47373;SDS011;33123;50.118;10.272;2022-08-19T01:39:19;3.25;;;2.95;;
47373;SDS011;33123;50.118;10.272;2022-08-19T01:41:48;3.10;;;2.85;;
47373;SDS011;33123;50.118;10.272;2022-08-19T01:44:17;4.95;;;3.03;;
47373;SDS011;33123;50.118;10.272;2022-08-19T01:46:45;3.25;;;2.95;;
47373;SDS011;33123;50.118;10.272;2022-08-19T01:49:14;3.05;;;2.75;;
47373;SDS011;33123;50.118;10.272;2022-08-19T01:51:42;3.60;;;3.30;;
47373;SDS011;33123;50.118;10.272;2022-08-19T01:54:08;3.50;;;3.20;;
47373;SDS011;33123;50.118;10.272;2022-08-19T01:56:36;3.20;;;2.90;;
47373;SDS011;33123;50.118;10.272;2022-08-19T01:59:06;4.38;;;3.38;;
47373;SDS011;33123;50.118;10.272;2022-08-19T02:01:37;2.55;;;2.28;;
47373;SDS011;33123;50.118;10.272;2022-08-19T02:04:04;2.78;;;2.50;;
47373;SDS011;33123;50.118;10.272;2022-08-19T02:06:31;3.90;;;2.53;;
47373;SDS011;33123;50.118;10.272;2022-08-19T02:08:58;3.08;;;2.83;;
47373;SDS011;33123;50.118;10.272;2022-08-19T02:11:25;4.60;;;4.05;;
47373;SDS011;33123;50.118;10.272;2022-08-19T02:13:56;3.13;;;2.83;;
47373;SDS011;33123;50.118;10.272;2022-08-19T02:16:24;4.13;;;3.38;;
47373;SDS011;33123;50.118;10.272;2022-08-19T02:18:51;3.65;;;3.20;;
47373;SDS011;33123;50.118;10.272;2022-08-19T02:21:18;2.90;;;2.58;;
47373;SDS011;33123;50.118;10.272;2022-08-19T02:23:46;2.78;;;2.58;;
47373;SDS011;33123;50.118;10.272;2022-08-19T02:26:14;3.95;;;3.03;;
47373;SDS011;33123;50.118;10.272;2022-08-19T02:28:43;3.83;;;3.08;;
47373;SDS011;33123;50.118;10.272;2022-08-19T02:31:10;3.30;;;2.97;;
47373;SDS011;33123;50.118;10.272;2022-08-19T02:33:38;3.75;;;3.22;;
47373;SDS011;33123;50.118;10.272;2022-08-19T02:36:06;2.90;;;2.63;;
47373;SDS011;33123;50.118;10.272;2022-08-19T02:38:33;2.83;;;2.20;;
47373;SDS011;33123;50.118;10.272;2022-08-19T02:41:00;2.45;;;2.03;;
47373;SDS011;33123;50.118;10.272;2022-08-19T02:43:29;3.17;;;2.88;;
47373;SDS011;33123;50.118;10.272;2022-08-19T02:45:57;3.03;;;2.72;;
47373;SDS011;33123;50.118;10.272;2022-08-19T02:48:24;2.65;;;2.45;;
47373;SDS011;33123;50.118;10.272;2022-08-19T02:50:53;3.28;;;2.80;;
47373;SDS011;33123;50.118;10.272;2022-08-19T02:53:21;3.33;;;2.90;;
47373;SDS011;33123;50.118;10.272;2022-08-19T02:55:48;3.08;;;2.80;;
47373;SDS011;33123;50.118;10.272;2022-08-19T02:58:16;2.65;;;2.45;;
47373;SDS011;33123;50.118;10.272;2022-08-19T03:00:44;2.63;;;2.42;;
47373;SDS011;33123;50.118;10.272;2022-08-19T03:03:11;2.85;;;2.65;;
47373;SDS011;33123;50.118;10.272;2022-08-19T03:05:38;2.67;;;2.47;;
47373;SDS011;33123;50.118;10.272;2022-08-19T03:08:07;3.60;;;2.72;;
47373;SDS011;33123;50.118;10.272;2022-08-19T03:10:40;3.17;;;2.47;;
47373;SDS011;33123;50.118;10.272;2022-08-19T03:13:09;3.45;;;2.78;;
47373;SDS011;33123;50.118;10.272;2022-08-19T03:15:38;3.70;;;3.38;;
47373;SDS011;33123;50.118;10.272;2022-08-19T03:18:06;3.03;;;2.75;;
47373;SDS011;33123;50.118;10.272;2022-08-19T03:20:32;2.60;;;2.30;;
47373;SDS011;33123;50.118;10.272;2022-08-19T03:22:59;2.38;;;2.17;;
47373;SDS011;33123;50.118;10.272;2022-08-19T03:25:28;2.13;;;1.95;;
47373;SDS011;33123;50.118;10.272;2022-08-19T03:27:54;2.83;;;2.50;;
47373;SDS011;33123;50.118;10.272;2022-08-19T03:30:21;4.43;;;3.58;;
47373;SDS011;33123;50.118;10.272;2022-08-19T03:32:48;4.05;;;2.67;;
47373;SDS011;33123;50.118;10.272;2022-08-19T03:35:14;2.55;;;2.35;;
47373;SDS011;33123;50.118;10.272;2022-08-19T03:37:41;3.38;;;2.97;;
47373;SDS011;33123;50.118;10.272;2022-08-19T03:40:08;2.60;;;2.35;;
47373;SDS011;33123;50.118;10.272;2022-08-19T03:42:36;2.95;;;2.55;;
47373;SDS011;33123;50.118;10.272;2022-08-19T03:45:03;2.75;;;2.55;;
47373;SDS011;33123;50.118;10.272;2022-08-19T03:47:32;2.00;;;1.83;;
47373;SDS011;33123;50.118;10.272;2022-08-19T03:49:58;3.45;;;3.15;;
47373;SDS011;33123;50.118;10.272;2022-08-19T03:52:25;3.33;;;2.83;;
47373;SDS011;33123;50.118;10.272;2022-08-19T03:58:14;2.17;;;1.98;;
47373;SDS011;33123;50.118;10.272;2022-08-19T04:00:41;2.17;;;1.98;;
47373;SDS011;33123;50.118;10.272;2022-08-19T04:03:08;2.33;;;2.13;;
47373;SDS011;33123;50.118;10.272;2022-08-19T04:05:35;3.03;;;2.72;;
47373;SDS011;33123;50.118;10.272;2022-08-19T04:08:02;3.00;;;2.42;;
47373;SDS011;33123;50.118;10.272;2022-08-19T04:10:30;2.28;;;2.08;;
47373;SDS011;33123;50.118;10.272;2022-08-19T04:12:57;6.32;;;3.33;;
47373;SDS011;33123;50.118;10.272;2022-08-19T04:15:25;2.38;;;2.17;;
47373;SDS011;33123;50.118;10.272;2022-08-19T04:17:53;2.33;;;2.13;;
47373;SDS011;33123;50.118;10.272;2022-08-19T04:20:20;2.85;;;2.55;;
47373;SDS011;33123;50.118;10.272;2022-08-19T04:22:47;3.80;;;3.15;;
47373;SDS011;33123;50.118;10.272;2022-08-19T04:25:13;2.13;;;1.92;;
47373;SDS011;33123;50.118;10.272;2022-08-19T04:27:40;1.98;;;1.77;;
47373;SDS011;33123;50.118;10.272;2022-08-19T04:30:12;2.28;;;1.90;;
47373;SDS011;33123;50.118;10.272;2022-08-19T04:32:40;2.05;;;1.83;;
47373;SDS011;33123;50.118;10.272;2022-08-19T04:35:08;2.30;;;2.10;;
47373;SDS011;33123;50.118;10.272;2022-08-19T04:37:35;2.63;;;2.38;;
47373;SDS011;33123;50.118;10.272;2022-08-19T04:40:03;2.72;;;2.33;;
47373;SDS011;33123;50.118;10.272;2022-08-19T04:42:48;2.83;;;2.35;;
47373;SDS011;33123;50.118;10.272;2022-08-19T04:45:15;2.17;;;1.98;;
47373;SDS011;33123;50.118;10.272;2022-08-19T04:47:43;2.55;;;2.35;;
47373;SDS011;33123;50.118;10.272;2022-08-19T04:50:10;2.47;;;2.28;;
47373;SDS011;33123;50.118;10.272;2022-08-19T04:52:37;2.13;;;2.03;;
47373;SDS011;33123;50.118;10.272;2022-08-19T04:55:04;2.25;;;2.03;;
47373;SDS011;33123;50.118;10.272;2022-08-19T04:57:31;2.70;;;2.47;;
47373;SDS011;33123;50.118;10.272;2022-08-19T04:59:58;4.32;;;3.05;;
47373;SDS011;33123;50.118;10.272;2022-08-19T05:02:24;3.40;;;2.30;;
47373;SDS011;33123;50.118;10.272;2022-08-19T05:04:55;2.97;;;2.38;;
47373;SDS011;33123;50.118;10.272;2022-08-19T05:07:23;3.38;;;3.08;;
47373;SDS011;33123;50.118;10.272;2022-08-19T05:09:51;4.78;;;2.25;;
47373;SDS011;33123;50.118;10.272;2022-08-19T05:12:17;4.05;;;3.00;;
47373;SDS011;33123;50.118;10.272;2022-08-19T05:14:44;5.10;;;2.35;;
47373;SDS011;33123;50.118;10.272;2022-08-19T05:17:12;2.75;;;2.55;;
47373;SDS011;33123;50.118;10.272;2022-08-19T05:19:39;2.85;;;1.95;;
47373;SDS011;33123;50.118;10.272;2022-08-19T05:22:25;2.40;;;2.20;;
47373;SDS011;33123;50.118;10.272;2022-08-19T05:25:04;3.78;;;2.92;;
47373;SDS011;33123;50.118;10.272;2022-08-19T05:27:32;2.95;;;2.58;;
47373;SDS011;33123;50.118;10.272;2022-08-19T05:29:59;3.08;;;2.60;;
47373;SDS011;33123;50.118;10.272;2022-08-19T05:32:26;2.38;;;2.17;;
47373;SDS011;33123;50.118;10.272;2022-08-19T05:34:53;5.38;;;4.43;;
47373;SDS011;33123;50.118;10.272;2022-08-19T05:37:20;3.20;;;2.78;;
47373;SDS011;33123;50.118;10.272;2022-08-19T05:39:48;2.95;;;2.42;;
47373;SDS011;33123;50.118;10.272;2022-08-19T05:42:15;2.80;;;2.53;;
47373;SDS011;33123;50.118;10.272;2022-08-19T05:44:42;2.38;;;2.17;;
47373;SDS011;33123;50.118;10.272;2022-08-19T05:47:10;3.45;;;2.90;;
47373;SDS011;33123;50.118;10.272;2022-08-19T05:49:39;3.05;;;2.75;;
47373;SDS011;33123;50.118;10.272;2022-08-19T05:52:08;2.70;;;2.42;;
47373;SDS011;33123;50.118;10.272;2022-08-19T05:54:37;3.30;;;3.00;;
47373;SDS011;33123;50.118;10.272;2022-08-19T05:57:06;4.63;;;2.78;;
47373;SDS011;33123;50.118;10.272;2022-08-19T05:59:33;3.10;;;2.70;;
47373;SDS011;33123;50.118;10.272;2022-08-19T06:02:01;3.50;;;3.20;;
47373;SDS011;33123;50.118;10.272;2022-08-19T06:04:30;2.97;;;2.67;;
47373;SDS011;33123;50.118;10.272;2022-08-19T06:06:56;2.70;;;2.50;;
47373;SDS011;33123;50.118;10.272;2022-08-19T06:09:23;2.58;;;2.03;;
47373;SDS011;33123;50.118;10.272;2022-08-19T06:11:50;3.00;;;2.70;;
47373;SDS011;33123;50.118;10.272;2022-08-19T06:14:22;2.90;;;2.50;;
47373;SDS011;33123;50.118;10.272;2022-08-19T06:16:50;3.55;;;3.17;;
47373;SDS011;33123;50.118;10.272;2022-08-19T06:19:18;3.92;;;3.40;;
47373;SDS011;33123;50.118;10.272;2022-08-19T06:21:49;2.78;;;2.47;;
47373;SDS011;33123;50.118;10.272;2022-08-19T06:24:17;3.00;;;2.75;;
47373;SDS011;33123;50.118;10.272;2022-08-19T06:26:48;3.58;;;3.05;;
47373;SDS011;33123;50.118;10.272;2022-08-19T06:29:21;3.20;;;2.67;;
47373;SDS011;33123;50.118;10.272;2022-08-19T06:31:50;4.47;;;3.67;;
47373;SDS011;33123;50.118;10.272;2022-08-19T06:34:19;3.50;;;3.20;;
47373;SDS011;33123;50.118;10.272;2022-08-19T06:36:47;5.60;;;4.80;;
47373;SDS011;33123;50.118;10.272;2022-08-19T06:39:16;3.65;;;3.35;;
47373;SDS011;33123;50.118;10.272;2022-08-19T06:41:49;4.43;;;3.83;;
47373;SDS011;33123;50.118;10.272;2022-08-19T06:44:17;3.55;;;3.25;;
47373;SDS011;33123;50.118;10.272;2022-08-19T06:46:47;3.08;;;2.88;;
47373;SDS011;33123;50.118;10.272;2022-08-19T06:49:14;3.38;;;3.08;;
47373;SDS011;33123;50.118;10.272;2022-08-19T06:51:41;4.97;;;4.05;;
47373;SDS011;33123;50.118;10.272;2022-08-19T06:54:08;3.03;;;2.72;;
47373;SDS011;33123;50.118;10.272;2022-08-19T06:56:36;4.13;;;3.38;;
47373;SDS011;33123;50.118;10.272;2022-08-19T06:59:04;3.40;;;2.83;;
47373;SDS011;33123;50.118;10.272;2022-08-19T07:01:36;4.53;;;3.88;;
47373;SDS011;33123;50.118;10.272;2022-08-19T07:04:06;3.40;;;3.10;;
47373;SDS011;33123;50.118;10.272;2022-08-19T07:06:34;3.95;;;3.55;;
47373;SDS011;33123;50.118;10.272;2022-08-19T07:09:02;2.58;;;2.35;;
47373;SDS011;33123;50.118;10.272;2022-08-19T07:11:29;3.83;;;3.45;;
47373;SDS011;33123;50.118;10.272;2022-08-19T07:13:57;3.58;;;3.28;;
47373;SDS011;33123;50.118;10.272;2022-08-19T07:16:24;3.28;;;2.97;;
47373;SDS011;33123;50.118;10.272;2022-08-19T07:18:51;4.32;;;3.15;;
47373;SDS011;33123;50.118;10.272;2022-08-19T07:21:20;3.40;;;2.90;;
47373;SDS011;33123;50.118;10.272;2022-08-19T07:23:49;3.80;;;3.38;;
47373;SDS011;33123;50.118;10.272;2022-08-19T07:26:17;3.28;;;2.97;;
47373;SDS011;33123;50.118;10.272;2022-08-19T07:28:47;3.10;;;2.80;;
47373;SDS011;33123;50.118;10.272;2022-08-19T07:31:14;4.43;;;3.67;;
47373;SDS011;33123;50.118;10.272;2022-08-19T07:33:44;3.60;;;3.30;;
47373;SDS011;33123;50.118;10.272;2022-08-19T07:36:12;2.97;;;2.70;;
47373;SDS011;33123;50.118;10.272;2022-08-19T07:38:43;3.90;;;3.05;;
47373;SDS011;33123;50.118;10.272;2022-08-19T07:41:12;3.75;;;3.38;;
47373;SDS011;33123;50.118;10.272;2022-08-19T07:43:43;4.72;;;3.72;;
47373;SDS011;33123;50.118;10.272;2022-08-19T07:46:10;3.72;;;3.20;;
47373;SDS011;33123;50.118;10.272;2022-08-19T07:48:38;4.28;;;3.88;;
47373;SDS011;33123;50.118;10.272;2022-08-19T07:51:07;3.78;;;3.47;;
47373;SDS011;33123;50.118;10.272;2022-08-19T07:53:36;4.05;;;3.40;;
47373;SDS011;33123;50.118;10.272;2022-08-19T07:56:05;4.75;;;4.35;;
47373;SDS011;33123;50.118;10.272;2022-08-19T07:58:34;3.97;;;3.67;;
47373;SDS011;33123;50.118;10.272;2022-08-19T08:01:04;4.50;;;4.10;;
47373;SDS011;33123;50.118;10.272;2022-08-19T08:03:32;4.45;;;3.63;;
47373;SDS011;33123;50.118;10.272;2022-08-19T08:06:19;4.15;;;3.50;;
47373;SDS011;33123;50.118;10.272;2022-08-19T08:09:03;5.05;;;4.55;;
47373;SDS011;33123;50.118;10.272;2022-08-19T08:11:38;4.18;;;3.63;;
47373;SDS011;33123;50.118;10.272;2022-08-19T08:14:06;4.85;;;4.38;;
47373;SDS011;33123;50.118;10.272;2022-08-19T08:16:35;4.22;;;3.83;;
47373;SDS011;33123;50.118;10.272;2022-08-19T08:19:03;4.43;;;4.03;;
47373;SDS011;33123;50.118;10.272;2022-08-19T08:21:30;4.18;;;3.78;;
47373;SDS011;33123;50.118;10.272;2022-08-19T08:23:57;4.47;;;4.07;;
47373;SDS011;33123;50.118;10.272;2022-08-19T08:26:24;3.67;;;3.13;;
47373;SDS011;33123;50.118;10.272;2022-08-19T08:28:52;4.50;;;3.95;;
47373;SDS011;33123;50.118;10.272;2022-08-19T08:31:20;5.18;;;3.92;;
47373;SDS011;33123;50.118;10.272;2022-08-19T08:33:47;5.00;;;4.60;;
47373;SDS011;33123;50.118;10.272;2022-08-19T08:36:13;3.95;;;3.65;;
47373;SDS011;33123;50.118;10.272;2022-08-19T08:38:41;4.72;;;3.83;;
47373;SDS011;33123;50.118;10.272;2022-08-19T08:41:12;5.32;;;4.25;;
47373;SDS011;33123;50.118;10.272;2022-08-19T08:43:45;3.75;;;3.42;;
47373;SDS011;33123;50.118;10.272;2022-08-19T08:46:18;4.05;;;3.65;;
47373;SDS011;33123;50.118;10.272;2022-08-19T08:51:20;3.83;;;3.53;;
47373;SDS011;33123;50.118;10.272;2022-08-19T08:53:52;4.10;;;3.75;;
47373;SDS011;33123;50.118;10.272;2022-08-19T08:56:20;4.55;;;4.15;;
47373;SDS011;33123;50.118;10.272;2022-08-19T08:58:49;4.53;;;3.90;;
47373;SDS011;33123;50.118;10.272;2022-08-19T09:01:23;4.13;;;3.60;;
47373;SDS011;33123;50.118;10.272;2022-08-19T09:03:50;5.35;;;4.18;;
47373;SDS011;33123;50.118;10.272;2022-08-19T09:06:18;3.72;;;3.42;;
47373;SDS011;33123;50.118;10.272;2022-08-19T09:08:57;3.80;;;3.40;;
47373;SDS011;33123;50.118;10.272;2022-08-19T09:11:33;3.85;;;3.13;;
47373;SDS011;33123;50.118;10.272;2022-08-19T09:14:12;4.25;;;3.80;;
47373;SDS011;33123;50.118;10.272;2022-08-19T09:16:48;3.50;;;3.20;;
47373;SDS011;33123;50.118;10.272;2022-08-19T09:19:15;4.32;;;3.92;;
47373;SDS011;33123;50.118;10.272;2022-08-19T09:21:44;3.78;;;3.38;;
47373;SDS011;33123;50.118;10.272;2022-08-19T09:24:11;4.10;;;3.70;;
47373;SDS011;33123;50.118;10.272;2022-08-19T09:26:38;2.95;;;2.70;;
47373;SDS011;33123;50.118;10.272;2022-08-19T09:29:04;3.83;;;3.45;;
47373;SDS011;33123;50.118;10.272;2022-08-19T09:31:31;3.70;;;3.38;;
47373;SDS011;33123;50.118;10.272;2022-08-19T09:34:00;2.70;;;2.50;;
47373;SDS011;33123;50.118;10.272;2022-08-19T09:36:28;2.78;;;2.40;;
47373;SDS011;33123;50.118;10.272;2022-08-19T09:38:57;4.38;;;3.20;;
47373;SDS011;33123;50.118;10.272;2022-08-19T09:41:26;3.22;;;2.92;;
47373;SDS011;33123;50.118;10.272;2022-08-19T09:43:54;3.13;;;2.83;;
47373;SDS011;33123;50.118;10.272;2022-08-19T09:46:22;3.40;;;3.10;;
47373;SDS011;33123;50.118;10.272;2022-08-19T09:48:51;3.33;;;3.00;;
47373;SDS011;33123;50.118;10.272;2022-08-19T09:51:21;2.78;;;2.33;;
47373;SDS011;33123;50.118;10.272;2022-08-19T09:53:49;2.65;;;2.28;;
47373;SDS011;33123;50.118;10.272;2022-08-19T09:56:18;2.78;;;2.58;;
47373;SDS011;33123;50.118;10.272;2022-08-19T09:58:46;2.40;;;2.15;;
47373;SDS011;33123;50.118;10.272;2022-08-19T10:01:15;3.35;;;2.38;;
47373;SDS011;33123;50.118;10.272;2022-08-19T10:03:44;2.45;;;2.25;;
47373;SDS011;33123;50.118;10.272;2022-08-19T10:06:15;2.78;;;2.40;;
47373;SDS011;33123;50.118;10.272;2022-08-19T10:08:44;1.90;;;1.80;;
47373;SDS011;33123;50.118;10.272;2022-08-19T10:11:11;2.72;;;2.42;;
47373;SDS011;33123;50.118;10.272;2022-08-19T10:13:41;2.22;;;2.03;;
47373;SDS011;33123;50.118;10.272;2022-08-19T10:16:09;2.08;;;1.90;;
47373;SDS011;33123;50.118;10.272;2022-08-19T10:18:44;2.78;;;2.00;;
47373;SDS011;33123;50.118;10.272;2022-08-19T10:21:12;1.60;;;1.42;;
47373;SDS011;33123;50.118;10.272;2022-08-19T10:23:41;1.80;;;1.67;;
47373;SDS011;33123;50.118;10.272;2022-08-19T10:26:12;1.67;;;1.58;;
47373;SDS011;33123;50.118;10.272;2022-08-19T10:28:41;2.40;;;2.13;;
47373;SDS011;33123;50.118;10.272;2022-08-19T10:31:09;2.17;;;1.85;;
47373;SDS011;33123;50.118;10.272;2022-08-19T10:33:38;2.33;;;1.20;;
47373;SDS011;33123;50.118;10.272;2022-08-19T10:36:06;1.98;;;1.52;;
47373;SDS011;33123;50.118;10.272;2022-08-19T10:38:36;1.40;;;1.30;;
47373;SDS011;33123;50.118;10.272;2022-08-19T10:41:06;1.30;;;1.20;;
47373;SDS011;33123;50.118;10.272;2022-08-19T10:43:35;1.35;;;1.30;;
47373;SDS011;33123;50.118;10.272;2022-08-19T10:46:03;1.15;;;1.08;;
47373;SDS011;33123;50.118;10.272;2022-08-19T10:48:31;1.30;;;1.27;;
47373;SDS011;33123;50.118;10.272;2022-08-19T10:50:58;1.50;;;1.02;;
47373;SDS011;33123;50.118;10.272;2022-08-19T10:53:42;1.20;;;1.10;;
47373;SDS011;33123;50.118;10.272;2022-08-19T10:56:08;2.25;;;1.20;;
47373;SDS011;33123;50.118;10.272;2022-08-19T10:58:54;1.40;;;1.30;;
47373;SDS011;33123;50.118;10.272;2022-08-19T11:01:21;1.10;;;1.10;;
47373;SDS011;33123;50.118;10.272;2022-08-19T11:03:48;2.05;;;1.38;;
47373;SDS011;33123;50.118;10.272;2022-08-19T11:06:15;1.25;;;1.17;;
47373;SDS011;33123;50.118;10.272;2022-08-19T11:08:41;1.13;;;1.10;;
47373;SDS011;33123;50.118;10.272;2022-08-19T11:11:10;0.90;;;0.90;;
47373;SDS011;33123;50.118;10.272;2022-08-19T11:13:38;1.65;;;1.45;;
47373;SDS011;33123;50.118;10.272;2022-08-19T11:16:08;3.47;;;1.42;;
47373;SDS011;33123;50.118;10.272;2022-08-19T11:18:39;1.27;;;1.17;;
47373;SDS011;33123;50.118;10.272;2022-08-19T11:21:08;1.38;;;1.27;;
47373;SDS011;33123;50.118;10.272;2022-08-19T11:23:36;1.23;;;1.13;;
47373;SDS011;33123;50.118;10.272;2022-08-19T11:26:03;1.20;;;1.10;;
47373;SDS011;33123;50.118;10.272;2022-08-19T11:28:30;2.38;;;1.83;;
47373;SDS011;33123;50.118;10.272;2022-08-19T11:30:57;1.08;;;1.02;;
47373;SDS011;33123;50.118;10.272;2022-08-19T11:33:25;0.90;;;0.90;;
47373;SDS011;33123;50.118;10.272;2022-08-19T11:35:52;1.17;;;1.17;;
47373;SDS011;33123;50.118;10.272;2022-08-19T11:38:19;0.98;;;0.98;;
47373;SDS011;33123;50.118;10.272;2022-08-19T11:40:53;1.17;;;1.08;;
47373;SDS011;33123;50.118;10.272;2022-08-19T11:43:20;1.48;;;1.38;;
47373;SDS011;33123;50.118;10.272;2022-08-19T11:45:47;0.93;;;0.93;;
47373;SDS011;33123;50.118;10.272;2022-08-19T11:48:14;1.25;;;0.98;;
47373;SDS011;33123;50.118;10.272;2022-08-19T11:50:42;1.20;;;1.10;;
47373;SDS011;33123;50.118;10.272;2022-08-19T11:53:08;0.88;;;0.88;;
47373;SDS011;33123;50.118;10.272;2022-08-19T11:55:36;1.02;;;1.02;;
47373;SDS011;33123;50.118;10.272;2022-08-19T11:58:04;2.08;;;1.75;;
47373;SDS011;33123;50.118;10.272;2022-08-19T12:00:31;0.85;;;0.85;;
47373;SDS011;33123;50.118;10.272;2022-08-19T12:02:59;1.10;;;1.10;;
47373;SDS011;33123;50.118;10.272;2022-08-19T12:05:25;3.15;;;1.10;;
47373;SDS011;33123;50.118;10.272;2022-08-19T12:07:53;1.15;;;1.05;;
47373;SDS011;33123;50.118;10.272;2022-08-19T12:10:21;1.17;;;1.08;;
47373;SDS011;33123;50.118;10.272;2022-08-19T12:12:48;0.82;;;0.82;;
47373;SDS011;33123;50.118;10.272;2022-08-19T12:15:15;1.30;;;1.20;;
47373;SDS011;33123;50.118;10.272;2022-08-19T12:17:42;0.93;;;0.93;;
47373;SDS011;33123;50.118;10.272;2022-08-19T12:20:09;1.08;;;1.02;;
47373;SDS011;33123;50.118;10.272;2022-08-19T12:22:40;1.17;;;1.05;;
47373;SDS011;33123;50.118;10.272;2022-08-19T12:27:57;0.90;;;0.90;;
47373;SDS011;33123;50.118;10.272;2022-08-19T12:30:24;0.80;;;0.80;;
47373;SDS011;33123;50.118;10.272;2022-08-19T12:32:51;0.82;;;0.82;;
47373;SDS011;33123;50.118;10.272;2022-08-19T12:35:18;0.80;;;0.80;;
47373;SDS011;33123;50.118;10.272;2022-08-19T12:37:46;0.80;;;0.80;;
47373;SDS011;33123;50.118;10.272;2022-08-19T12:40:13;1.05;;;0.98;;
47373;SDS011;33123;50.118;10.272;2022-08-19T12:42:44;1.20;;;1.10;;
47373;SDS011;33123;50.118;10.272;2022-08-19T12:45:11;1.02;;;0.98;;
47373;SDS011;33123;50.118;10.272;2022-08-19T12:47:39;0.70;;;0.70;;
47373;SDS011;33123;50.118;10.272;2022-08-19T12:50:06;1.02;;;1.02;;
47373;SDS011;33123;50.118;10.272;2022-08-19T12:52:34;0.95;;;0.95;;
47373;SDS011;33123;50.118;10.272;2022-08-19T12:55:02;1.10;;;1.10;;
47373;SDS011;33123;50.118;10.272;2022-08-19T12:57:30;1.33;;;1.15;;
47373;SDS011;33123;50.118;10.272;2022-08-19T13:00:00;0.88;;;0.88;;
47373;SDS011;33123;50.118;10.272;2022-08-19T13:02:31;0.80;;;0.80;;
47373;SDS011;33123;50.118;10.272;2022-08-19T13:04:59;0.90;;;0.90;;
47373;SDS011;33123;50.118;10.272;2022-08-19T13:07:26;1.05;;;1.05;;
47373;SDS011;33123;50.118;10.272;2022-08-19T13:09:53;0.68;;;0.68;;
47373;SDS011;33123;50.118;10.272;2022-08-19T13:12:19;0.73;;;0.73;;
47373;SDS011;33123;50.118;10.272;2022-08-19T13:14:48;0.80;;;0.80;;
47373;SDS011;33123;50.118;10.272;2022-08-19T13:17:17;1.05;;;1.05;;
47373;SDS011;33123;50.118;10.272;2022-08-19T13:19:44;1.00;;;1.00;;
47373;SDS011;33123;50.118;10.272;2022-08-19T13:22:11;0.70;;;0.70;;
47373;SDS011;33123;50.118;10.272;2022-08-19T13:24:38;1.33;;;1.23;;
47373;SDS011;33123;50.118;10.272;2022-08-19T13:27:04;0.80;;;0.80;;
47373;SDS011;33123;50.118;10.272;2022-08-19T13:29:31;0.77;;;0.77;;
47373;SDS011;33123;50.118;10.272;2022-08-19T13:32:17;0.80;;;0.80;;
47373;SDS011;33123;50.118;10.272;2022-08-19T13:35:01;0.70;;;0.70;;
47373;SDS011;33123;50.118;10.272;2022-08-19T13:37:28;0.88;;;0.88;;
47373;SDS011;33123;50.118;10.272;2022-08-19T13:40:07;0.90;;;0.90;;
47373;SDS011;33123;50.118;10.272;2022-08-19T13:42:36;0.90;;;0.90;;
47373;SDS011;33123;50.118;10.272;2022-08-19T13:45:03;0.73;;;0.73;;
47373;SDS011;33123;50.118;10.272;2022-08-19T13:47:32;1.10;;;1.00;;
47373;SDS011;33123;50.118;10.272;2022-08-19T13:50:00;0.77;;;0.77;;
47373;SDS011;33123;50.118;10.272;2022-08-19T13:52:29;0.90;;;0.90;;
47373;SDS011;33123;50.118;10.272;2022-08-19T13:54:55;1.10;;;1.00;;
47373;SDS011;33123;50.118;10.272;2022-08-19T13:57:23;1.05;;;0.95;;
47373;SDS011;33123;50.118;10.272;2022-08-19T13:59:49;0.80;;;0.80;;
47373;SDS011;33123;50.118;10.272;2022-08-19T14:02:16;1.00;;;1.00;;
47373;SDS011;33123;50.118;10.272;2022-08-19T14:04:44;1.25;;;1.15;;
47373;SDS011;33123;50.118;10.272;2022-08-19T14:07:11;1.40;;;1.30;;
47373;SDS011;33123;50.118;10.272;2022-08-19T14:09:38;0.80;;;0.80;;
47373;SDS011;33123;50.118;10.272;2022-08-19T14:12:05;0.80;;;0.80;;
47373;SDS011;33123;50.118;10.272;2022-08-19T14:14:32;0.80;;;0.80;;
47373;SDS011;33123;50.118;10.272;2022-08-19T14:17:02;0.85;;;0.85;;
47373;SDS011;33123;50.118;10.272;2022-08-19T14:19:32;1.08;;;1.08;;
47373;SDS011;33123;50.118;10.272;2022-08-19T14:22:00;0.70;;;0.70;;
47373;SDS011;33123;50.118;10.272;2022-08-19T14:24:27;0.70;;;0.70;;
47373;SDS011;33123;50.118;10.272;2022-08-19T14:26:53;1.17;;;1.10;;
47373;SDS011;33123;50.118;10.272;2022-08-19T14:29:20;0.77;;;0.77;;
47373;SDS011;33123;50.118;10.272;2022-08-19T14:31:47;1.38;;;1.25;;
47373;SDS011;33123;50.118;10.272;2022-08-19T14:34:13;0.80;;;0.80;;
47373;SDS011;33123;50.118;10.272;2022-08-19T14:36:40;1.02;;;1.00;;
47373;SDS011;33123;50.118;10.272;2022-08-19T14:39:08;1.02;;;1.02;;
47373;SDS011;33123;50.118;10.272;2022-08-19T14:41:35;0.88;;;0.88;;
47373;SDS011;33123;50.118;10.272;2022-08-19T14:44:02;0.75;;;0.75;;
47373;SDS011;33123;50.118;10.272;2022-08-19T14:46:29;0.90;;;0.90;;
47373;SDS011;33123;50.118;10.272;2022-08-19T14:48:56;0.90;;;0.90;;